Time;durP1;ratioP1;P1;durP2;ratioP2;P2;SDS_P1;SDS_P2;PMS_P1;PMS_P2;Temp;Humidity;BMP_temperature;BMP_pressure;BME280_temperature;BME280_humidity;BME280_pressure;Samples;Min_cycle;Max_cycle;Signal;HPM_P1;HPM_P2
2021/08/17 00:00:10;;;;;;;10.57;1.80;;;14.50;99.90;;;;;;5057064;28;20500;-66
2021/08/17 00:02:36;;;;;;;15.93;2.25;;;14.60;99.90;;;;;;5055230;28;20309;-67
2021/08/17 00:05:03;;;;;;;13.43;2.28;;;14.60;99.90;;;;;;5057196;28;20116;-67
2021/08/17 00:07:29;;;;;;;12.70;2.53;;;14.60;99.90;;;;;;5038646;28;20071;-67
2021/08/17 00:09:55;;;;;;;10.93;2.28;;;14.60;99.90;;;;;;5056626;28;20041;-67
2021/08/17 00:12:21;;;;;;;15.88;2.22;;;14.60;99.90;;;;;;5057174;28;20107;-67
2021/08/17 00:14:48;;;;;;;12.02;2.83;;;14.60;99.90;;;;;;5055901;28;20493;-67
2021/08/17 00:17:14;;;;;;;9.70;2.00;;;14.60;99.90;;;;;;5055709;28;20033;-66
2021/08/17 00:19:40;;;;;;;5.63;1.48;;;14.60;99.90;;;;;;5057168;28;20063;-68
2021/08/17 00:22:09;;;;;;;10.40;2.40;;;14.60;99.90;;;;;;5056736;28;20049;-66
2021/08/17 00:24:36;;;;;;;9.13;1.98;;;14.60;99.90;;;;;;5057262;28;20529;-66
2021/08/17 00:27:02;;;;;;;18.40;3.42;;;14.70;99.90;;;;;;5054891;28;20107;-66
2021/08/17 00:29:28;;;;;;;9.68;2.22;;;14.60;99.90;;;;;;5055443;28;20033;-67
2021/08/17 00:31:53;;;;;;;11.32;2.60;;;14.60;99.90;;;;;;5058129;28;20036;-67
2021/08/17 00:34:19;;;;;;;16.08;2.40;;;14.60;99.90;;;;;;5055456;28;20060;-67
2021/08/17 00:36:46;;;;;;;14.65;2.53;;;14.60;99.90;;;;;;5055082;28;20082;-67
2021/08/17 00:39:12;;;;;;;13.18;2.25;;;14.60;99.90;;;;;;5054681;28;20035;-67
2021/08/17 00:41:38;;;;;;;12.43;1.98;;;14.70;99.90;;;;;;5058454;28;20502;-66
2021/08/17 00:44:27;;;;;;;9.70;2.40;;;14.60;99.90;;;;;;5057063;28;20383;-67
2021/08/17 00:46:56;;;;;;;13.02;2.75;;;14.70;99.90;;;;;;5040871;28;20021;-67
2021/08/17 00:49:25;;;;;;;11.73;2.75;;;14.60;99.90;;;;;;5056980;28;20021;-67
2021/08/17 00:51:55;;;;;;;8.60;2.22;;;14.70;99.90;;;;;;5057665;28;20425;-67
2021/08/17 00:54:25;;;;;;;12.57;2.75;;;14.70;99.90;;;;;;5052845;28;20029;-67
2021/08/17 00:56:53;;;;;;;12.52;2.55;;;14.70;99.90;;;;;;5055917;28;20032;-67
2021/08/17 00:59:19;;;;;;;9.77;1.80;;;14.70;99.90;;;;;;5051652;28;20032;-67
2021/08/17 01:01:45;;;;;;;11.88;2.65;;;14.70;99.90;;;;;;5055857;28;20025;-67
2021/08/17 01:04:11;;;;;;;14.68;2.67;;;14.70;99.90;;;;;;5054619;28;20029;-66
2021/08/17 01:06:38;;;;;;;12.88;2.30;;;14.70;99.90;;;;;;5056120;28;20033;-67
2021/08/17 01:09:08;;;;;;;10.52;2.30;;;14.70;99.90;;;;;;5055667;28;20029;-67
2021/08/17 01:11:33;;;;;;;14.73;3.13;;;14.70;99.90;;;;;;5051276;28;20028;-67
2021/08/17 01:13:59;;;;;;;18.10;2.83;;;14.70;99.90;;;;;;5055963;28;20033;-67
2021/08/17 01:16:25;;;;;;;11.82;2.13;;;14.70;99.90;;;;;;5055115;28;20033;-67
2021/08/17 01:18:50;;;;;;;10.20;2.25;;;14.70;99.90;;;;;;5055062;28;20028;-67
2021/08/17 01:21:16;;;;;;;12.02;3.10;;;14.70;99.90;;;;;;5054452;28;20667;-67
2021/08/17 01:23:44;;;;;;;8.85;2.10;;;14.70;99.90;;;;;;5056318;28;20097;-66
2021/08/17 01:26:11;;;;;;;9.35;2.08;;;14.70;99.90;;;;;;5054211;28;20076;-67
2021/08/17 01:28:36;;;;;;;9.93;1.73;;;14.80;99.90;;;;;;5053472;28;20398;-67
2021/08/17 01:31:05;;;;;;;9.27;2.53;;;14.70;99.90;;;;;;5052015;28;20025;-67
2021/08/17 01:33:32;;;;;;;8.82;1.98;;;14.70;99.90;;;;;;5052757;28;20080;-66
2021/08/17 01:36:00;;;;;;;7.35;1.60;;;14.70;99.90;;;;;;5039304;28;20029;-68
2021/08/17 01:38:26;;;;;;;8.60;1.80;;;14.70;99.90;;;;;;5054540;28;20040;-67
2021/08/17 01:40:52;;;;;;;8.75;2.00;;;14.70;99.90;;;;;;5057025;28;20546;-68
2021/08/17 01:43:18;;;;;;;11.85;2.42;;;14.70;99.90;;;;;;5053871;28;20107;-67
2021/08/17 01:45:51;;;;;;;7.15;1.92;;;14.70;99.90;;;;;;5058431;28;20024;-67
2021/08/17 01:48:17;;;;;;;10.65;2.17;;;14.70;99.90;;;;;;5053715;28;20036;-67
2021/08/17 01:50:42;;;;;;;12.15;1.70;;;14.70;99.80;;;;;;5055826;28;20502;-67
2021/08/17 01:53:08;;;;;;;13.18;2.60;;;14.80;99.90;;;;;;5056213;28;20025;-66
2021/08/17 01:55:34;;;;;;;12.75;2.50;;;14.70;99.90;;;;;;5054786;28;20079;-66
2021/08/17 01:58:02;;;;;;;6.45;1.83;;;14.70;99.90;;;;;;5053134;28;20052;-67
2021/08/17 02:00:27;;;;;;;13.75;2.25;;;14.70;99.90;;;;;;5055919;28;20075;-67
2021/08/17 02:02:53;;;;;;;8.27;1.90;;;14.70;99.90;;;;;;5036999;28;20415;-67
2021/08/17 02:05:21;;;;;;;11.70;2.30;;;14.70;99.90;;;;;;5037578;28;20429;-65
2021/08/17 02:07:47;;;;;;;10.65;1.83;;;14.70;99.90;;;;;;5052617;28;20089;-66
2021/08/17 02:10:13;;;;;;;8.77;2.42;;;14.70;99.90;;;;;;5037675;28;20470;-67
2021/08/17 02:12:39;;;;;;;9.85;2.67;;;14.60;99.90;;;;;;5056157;28;20029;-66
2021/08/17 02:15:05;;;;;;;8.05;1.77;;;14.60;99.90;;;;;;5052859;28;20033;-68
2021/08/17 02:17:31;;;;;;;8.23;1.88;;;14.60;99.90;;;;;;5053604;28;20108;-67
2021/08/17 02:19:56;;;;;;;13.05;3.20;;;14.60;99.90;;;;;;5054348;28;20726;-67
2021/08/17 02:22:24;;;;;;;10.15;2.38;;;14.60;99.90;;;;;;5054522;28;20031;-66
2021/08/17 02:24:50;;;;;;;12.15;2.72;;;14.60;99.90;;;;;;5055680;28;20546;-68
2021/08/17 02:27:15;;;;;;;5.97;2.10;;;14.60;99.90;;;;;;5055338;28;20108;-67
2021/08/17 02:29:41;;;;;;;9.32;2.03;;;14.60;99.90;;;;;;5050332;28;20036;-65
2021/08/17 02:32:07;;;;;;;10.02;2.70;;;14.60;99.90;;;;;;5055552;28;20151;-67
2021/08/17 02:34:33;;;;;;;9.65;2.13;;;14.60;99.90;;;;;;5053978;28;20112;-67
2021/08/17 02:36:58;;;;;;;11.00;2.63;;;14.60;99.90;;;;;;5055231;28;20040;-65
2021/08/17 02:39:24;;;;;;;9.07;3.05;;;14.60;99.90;;;;;;5056779;28;20150;-67
2021/08/17 02:41:50;;;;;;;11.25;2.90;;;14.60;99.90;;;;;;5058526;28;20075;-66
2021/08/17 02:44:16;;;;;;;13.40;2.70;;;14.60;99.90;;;;;;5058135;28;20033;-67
2021/08/17 02:46:41;;;;;;;10.48;2.47;;;14.60;99.90;;;;;;5038332;28;20165;-67
2021/08/17 02:49:08;;;;;;;9.25;2.00;;;14.60;99.90;;;;;;5058370;28;20031;-67
2021/08/17 02:51:34;;;;;;;14.63;3.20;;;14.60;99.90;;;;;;5056219;28;20051;-67
2021/08/17 02:54:00;;;;;;;12.57;2.90;;;14.60;99.90;;;;;;5056813;28;20024;-67
2021/08/17 02:56:25;;;;;;;13.90;2.47;;;14.60;99.90;;;;;;5057506;28;20029;-67
2021/08/17 02:58:51;;;;;;;9.23;2.38;;;14.60;99.90;;;;;;5059085;28;20016;-67
2021/08/17 03:01:17;;;;;;;13.27;2.53;;;14.60;99.90;;;;;;5054276;28;20053;-67
2021/08/17 03:03:42;;;;;;;11.65;2.47;;;14.60;99.90;;;;;;5057582;28;20021;-67
2021/08/17 03:06:08;;;;;;;9.60;2.45;;;14.60;99.90;;;;;;5057124;28;20021;-67
2021/08/17 03:08:34;;;;;;;10.25;2.25;;;14.60;99.90;;;;;;5057870;28;20037;-67
2021/08/17 03:11:00;;;;;;;8.30;2.10;;;14.60;99.90;;;;;;5055981;28;20021;-67
2021/08/17 03:13:25;;;;;;;7.75;2.35;;;14.50;99.90;;;;;;5041120;28;20273;-67
2021/08/17 03:15:51;;;;;;;16.38;3.13;;;14.60;99.90;;;;;;5057249;28;20034;-66
2021/08/17 03:18:17;;;;;;;8.43;2.72;;;14.50;99.90;;;;;;5054979;28;20671;-68
2021/08/17 03:20:43;;;;;;;8.20;2.35;;;14.50;99.90;;;;;;5057049;28;20561;-68
2021/08/17 03:23:13;;;;;;;12.32;2.33;;;14.50;99.90;;;;;;5058117;28;20075;-67
2021/08/17 03:25:39;;;;;;;14.47;3.10;;;14.50;99.90;;;;;;5056592;28;20505;-67
2021/08/17 03:28:05;;;;;;;9.85;2.30;;;14.50;99.90;;;;;;5056148;28;20032;-68
2021/08/17 03:30:31;;;;;;;14.43;2.50;;;14.50;99.90;;;;;;5059678;28;20024;-67
2021/08/17 03:32:56;;;;;;;8.15;1.92;;;14.50;99.90;;;;;;5060491;28;20017;-67
2021/08/17 03:35:22;;;;;;;13.32;3.20;;;14.50;99.90;;;;;;5055423;28;20056;-67
2021/08/17 03:37:48;;;;;;;14.50;2.22;;;14.50;99.90;;;;;;5056849;28;20148;-67
2021/08/17 03:40:17;;;;;;;10.13;2.10;;;14.40;99.80;;;;;;5057538;28;20033;-67
2021/08/17 03:42:43;;;;;;;12.68;2.97;;;14.40;99.90;;;;;;5056051;28;20032;-68
2021/08/17 03:45:11;;;;;;;8.65;2.40;;;14.50;99.90;;;;;;5057726;28;20496;-67
2021/08/17 03:47:37;;;;;;;11.10;3.13;;;14.50;99.90;;;;;;5056718;28;20036;-67
2021/08/17 03:50:07;;;;;;;8.32;2.38;;;14.50;99.90;;;;;;5039842;28;20035;-67
2021/08/17 03:52:33;;;;;;;11.52;3.13;;;14.60;99.90;;;;;;5056419;28;20032;-67
2021/08/17 03:54:59;;;;;;;8.73;2.40;;;14.60;99.90;;;;;;5055389;28;20028;-67
2021/08/17 03:57:25;;;;;;;10.57;2.47;;;14.50;99.90;;;;;;5036677;28;20040;-67
2021/08/17 03:59:51;;;;;;;9.18;2.47;;;14.60;99.90;;;;;;5037797;28;20420;-66
2021/08/17 04:02:16;;;;;;;14.00;2.70;;;14.60;99.90;;;;;;5055460;28;20065;-68
2021/08/17 04:04:42;;;;;;;11.43;2.85;;;14.60;99.90;;;;;;5055443;28;20107;-67
2021/08/17 04:07:08;;;;;;;8.73;2.60;;;14.60;99.90;;;;;;5056386;28;20033;-67
2021/08/17 04:09:33;;;;;;;10.48;2.85;;;14.60;99.90;;;;;;5054614;28;20032;-67
2021/08/17 04:11:59;;;;;;;10.68;2.60;;;14.60;99.90;;;;;;5058285;28;20057;-67
2021/08/17 04:14:25;;;;;;;11.73;2.35;;;14.60;99.90;;;;;;5039513;28;20055;-67
2021/08/17 04:16:50;;;;;;;7.47;2.15;;;14.60;99.90;;;;;;5053510;28;20029;-67
2021/08/17 04:19:16;;;;;;;6.43;2.35;;;14.60;99.90;;;;;;5055439;28;20411;-67
2021/08/17 04:21:42;;;;;;;7.65;2.55;;;14.60;99.90;;;;;;5056854;28;20024;-67
2021/08/17 04:24:07;;;;;;;8.95;2.40;;;14.60;99.90;;;;;;5057718;28;20032;-66
2021/08/17 04:26:33;;;;;;;7.35;2.35;;;14.60;99.90;;;;;;5057388;28;20029;-67
2021/08/17 04:28:59;;;;;;;6.47;2.08;;;14.60;99.90;;;;;;5053179;28;20112;-66
2021/08/17 04:31:24;;;;;;;11.85;2.55;;;14.60;99.90;;;;;;5054556;28;20052;-67
2021/08/17 04:33:50;;;;;;;14.40;2.67;;;14.60;99.90;;;;;;5058273;28;20870;-67
2021/08/17 04:36:16;;;;;;;9.20;2.17;;;14.60;99.90;;;;;;5056124;28;20024;-67
2021/08/17 04:38:41;;;;;;;8.45;2.88;;;14.60;99.90;;;;;;5056634;28;20514;-68
2021/08/17 04:41:07;;;;;;;8.90;2.40;;;14.60;99.90;;;;;;5056130;28;20400;-67
2021/08/17 04:43:33;;;;;;;10.77;3.08;;;14.50;99.90;;;;;;5055058;28;20036;-66
2021/08/17 04:45:58;;;;;;;8.77;2.65;;;14.50;99.90;;;;;;5053529;28;20040;-66
2021/08/17 04:48:24;;;;;;;9.18;2.55;;;14.50;99.90;;;;;;5051760;28;20022;-68
2021/08/17 04:50:50;;;;;;;10.57;2.83;;;14.50;99.90;;;;;;5054933;28;20093;-67
2021/08/17 04:53:16;;;;;;;10.10;3.10;;;14.60;99.90;;;;;;5056290;28;20060;-67
2021/08/17 04:55:41;;;;;;;13.85;3.67;;;14.60;99.90;;;;;;5057782;28;20029;-67
2021/08/17 04:58:08;;;;;;;13.50;3.92;;;14.60;99.90;;;;;;5053580;28;20607;-66
2021/08/17 05:00:34;;;;;;;10.20;3.63;;;14.60;99.90;;;;;;5050375;28;20562;-73
2021/08/17 05:03:00;;;;;;;13.00;3.70;;;14.60;99.90;;;;;;5051147;28;20142;-66
2021/08/17 05:05:26;;;;;;;14.45;4.13;;;14.50;99.90;;;;;;5050282;28;20037;-67
2021/08/17 05:07:51;;;;;;;14.32;3.88;;;14.60;99.90;;;;;;5054720;28;20143;-69
2021/08/17 05:10:20;;;;;;;12.07;3.47;;;14.60;99.90;;;;;;5057223;28;20079;-67
2021/08/17 05:12:51;;;;;;;13.55;3.75;;;14.60;99.90;;;;;;5058276;28;20021;-67
2021/08/17 05:15:17;;;;;;;12.85;3.50;;;14.70;99.90;;;;;;5054079;28;20035;-67
2021/08/17 05:17:43;;;;;;;9.88;3.55;;;14.80;99.90;;;;;;5036569;28;20037;-67
2021/08/17 05:20:10;;;;;;;18.60;4.85;;;14.90;99.90;;;;;;5055565;28;20033;-66
2021/08/17 05:22:39;;;;;;;11.20;3.80;;;14.90;99.90;;;;;;5057327;28;20043;-67
2021/08/17 05:25:05;;;;;;;12.93;4.35;;;14.90;99.90;;;;;;5057151;28;20051;-67
2021/08/17 05:27:31;;;;;;;14.30;3.80;;;14.90;99.90;;;;;;5054750;28;20036;-66
2021/08/17 05:29:56;;;;;;;16.63;4.45;;;15.00;99.90;;;;;;5056306;28;20100;-66
2021/08/17 05:32:23;;;;;;;15.77;4.22;;;15.00;99.90;;;;;;5058662;28;20036;-66
2021/08/17 05:34:49;;;;;;;17.33;3.97;;;15.00;99.90;;;;;;5051998;28;20031;-67
2021/08/17 05:37:15;;;;;;;14.38;3.90;;;15.00;99.90;;;;;;5056690;28;20038;-65
2021/08/17 05:39:42;;;;;;;14.30;3.55;;;15.00;99.90;;;;;;5055408;28;20028;-67
2021/08/17 05:42:12;;;;;;;15.45;4.00;;;15.00;99.90;;;;;;5038354;28;20060;-66
2021/08/17 05:44:41;;;;;;;20.52;4.50;;;15.00;99.90;;;;;;5055215;28;20059;-67
2021/08/17 05:47:07;;;;;;;14.07;3.60;;;15.00;99.90;;;;;;5054603;28;20028;-67
2021/08/17 05:49:36;;;;;;;11.20;3.38;;;15.00;99.90;;;;;;5055344;28;20464;-67
2021/08/17 05:52:03;;;;;;;18.38;4.53;;;15.00;99.90;;;;;;5056894;28;20033;-68
2021/08/17 05:54:29;;;;;;;15.85;4.00;;;15.10;99.90;;;;;;5056469;28;20025;-67
2021/08/17 05:56:58;;;;;;;12.35;3.35;;;15.10;99.90;;;;;;5056092;28;20035;-66
2021/08/17 05:59:25;;;;;;;14.35;3.30;;;15.20;99.90;;;;;;5056857;28;20570;-67
2021/08/17 06:01:51;;;;;;;12.63;2.92;;;15.30;99.90;;;;;;5057351;28;20280;-69
2021/08/17 06:04:17;;;;;;;16.52;4.15;;;15.30;99.90;;;;;;5041671;28;20056;-65
2021/08/17 06:06:43;;;;;;;8.25;2.92;;;15.30;99.90;;;;;;5051577;28;20106;-66
2021/08/17 06:09:08;;;;;;;16.55;3.40;;;15.30;99.90;;;;;;5057071;28;20053;-65
2021/08/17 06:11:34;;;;;;;13.95;3.35;;;15.40;99.90;;;;;;5062137;28;20036;-68
2021/08/17 06:14:00;;;;;;;14.98;3.97;;;15.50;99.90;;;;;;5068779;28;20509;-66
2021/08/17 06:16:26;;;;;;;11.95;2.72;;;15.60;99.90;;;;;;5060695;28;20285;-69
2021/08/17 06:18:51;;;;;;;10.68;3.15;;;15.70;99.90;;;;;;5064272;28;20376;-66
2021/08/17 06:21:17;;;;;;;14.55;4.07;;;15.60;99.90;;;;;;5063843;28;20032;-68
2021/08/17 06:23:43;;;;;;;15.38;3.28;;;15.60;99.90;;;;;;5059376;28;20111;-65
2021/08/17 06:26:08;;;;;;;13.65;3.20;;;15.60;99.90;;;;;;5061303;28;20429;-68
2021/08/17 06:28:34;;;;;;;10.20;3.45;;;15.70;99.90;;;;;;5044734;28;20668;-67
2021/08/17 06:31:00;;;;;;;16.83;3.90;;;15.70;99.90;;;;;;5058066;28;20031;-71
2021/08/17 06:33:25;;;;;;;11.10;3.28;;;15.80;99.90;;;;;;5066264;28;20033;-67
2021/08/17 06:35:51;;;;;;;9.73;3.00;;;16.00;99.90;;;;;;5066793;28;20029;-68
2021/08/17 06:38:17;;;;;;;11.30;3.00;;;16.10;99.90;;;;;;5062493;28;20051;-69
2021/08/17 06:40:42;;;;;;;11.88;3.45;;;16.10;99.90;;;;;;5062883;28;20072;-68
2021/08/17 06:43:08;;;;;;;9.55;3.67;;;16.00;99.90;;;;;;5065120;28;20052;-69
2021/08/17 06:45:34;;;;;;;18.05;3.80;;;16.00;99.90;;;;;;5060849;28;20103;-68
2021/08/17 06:47:59;;;;;;;8.85;3.08;;;15.90;99.90;;;;;;5062471;28;20056;-68
2021/08/17 06:50:25;;;;;;;11.77;3.13;;;15.90;99.90;;;;;;5064015;28;20479;-68
2021/08/17 06:52:51;;;;;;;11.40;3.30;;;15.90;99.90;;;;;;5066708;28;20159;-67
2021/08/17 06:55:17;;;;;;;11.43;3.45;;;15.80;99.90;;;;;;5062116;28;20033;-67
2021/08/17 06:57:42;;;;;;;10.77;2.97;;;15.80;99.90;;;;;;5062494;28;20032;-67
2021/08/17 07:00:10;;;;;;;11.02;3.15;;;15.80;99.90;;;;;;5057964;28;20025;-67
2021/08/17 07:02:37;;;;;;;7.53;2.58;;;15.80;99.90;;;;;;5061225;28;20033;-68
2021/08/17 07:05:04;;;;;;;8.48;2.90;;;15.80;99.90;;;;;;5062962;28;20082;-67
2021/08/17 07:07:31;;;;;;;10.20;3.20;;;15.90;99.90;;;;;;5059280;28;20033;-67
2021/08/17 07:09:56;;;;;;;14.38;3.05;;;15.90;99.90;;;;;;5061971;28;20718;-68
2021/08/17 07:12:22;;;;;;;9.55;2.65;;;15.90;99.90;;;;;;5063402;28;20096;-68
2021/08/17 07:14:49;;;;;;;8.88;2.53;;;15.90;99.90;;;;;;5062903;28;20041;-67
2021/08/17 07:17:18;;;;;;;9.02;2.95;;;16.00;99.90;;;;;;5061305;28;20483;-67
2021/08/17 07:19:44;;;;;;;10.70;2.78;;;16.00;99.90;;;;;;5045366;28;20071;-67
2021/08/17 07:22:11;;;;;;;7.88;2.60;;;16.10;99.90;;;;;;5060742;28;20052;-67
2021/08/17 07:24:36;;;;;;;7.53;3.10;;;16.20;99.90;;;;;;5040039;28;20036;-68
2021/08/17 07:27:03;;;;;;;11.20;2.53;;;16.30;99.90;;;;;;5059024;28;20489;-67
2021/08/17 07:29:28;;;;;;;11.35;2.53;;;16.30;99.90;;;;;;5058076;28;20482;-68
2021/08/17 07:31:54;;;;;;;6.63;2.97;;;16.40;99.90;;;;;;5059419;28;20040;-67
2021/08/17 07:34:20;;;;;;;9.52;2.42;;;16.40;99.90;;;;;;5041909;28;20449;-67
2021/08/17 07:36:46;;;;;;;10.27;2.90;;;16.20;99.90;;;;;;5038285;28;20504;-67
2021/08/17 07:39:13;;;;;;;10.85;2.90;;;16.20;99.90;;;;;;5059766;28;20024;-68
2021/08/17 07:41:40;;;;;;;10.27;2.60;;;16.10;99.90;;;;;;5053544;28;20425;-68
2021/08/17 07:44:05;;;;;;;8.10;2.55;;;16.20;99.90;;;;;;5017885;28;20025;-66
2021/08/17 07:46:32;;;;;;;11.95;2.63;;;16.20;99.90;;;;;;5055084;28;20093;-67
2021/08/17 07:48:57;;;;;;;6.03;2.60;;;16.10;99.90;;;;;;5059643;28;20401;-68
2021/08/17 07:51:24;;;;;;;7.82;2.38;;;16.10;99.90;;;;;;5058704;28;20135;-67
2021/08/17 07:53:49;;;;;;;8.25;2.78;;;16.00;99.90;;;;;;5047032;28;20044;-67
2021/08/17 07:56:16;;;;;;;8.38;2.58;;;16.00;99.90;;;;;;5047024;28;20063;-67
2021/08/17 07:58:42;;;;;;;8.75;2.28;;;16.00;99.90;;;;;;5044278;28;20036;-67
2021/08/17 08:01:10;;;;;;;6.95;1.90;;;15.90;99.90;;;;;;5028464;28;20043;-67
2021/08/17 08:03:36;;;;;;;6.50;2.75;;;15.90;99.90;;;;;;5045865;28;20490;-67
2021/08/17 08:06:02;;;;;;;8.75;2.60;;;16.00;99.90;;;;;;5028148;28;20037;-66
2021/08/17 08:08:27;;;;;;;7.57;2.30;;;16.10;99.90;;;;;;5044470;28;20517;-67
2021/08/17 08:10:56;;;;;;;7.97;2.30;;;16.10;99.90;;;;;;5047073;28;20032;-67
2021/08/17 08:13:21;;;;;;;8.88;2.95;;;16.20;99.90;;;;;;5051123;28;20378;-67
2021/08/17 08:15:47;;;;;;;7.85;2.42;;;16.10;99.90;;;;;;5040487;28;20032;-67
2021/08/17 08:18:13;;;;;;;4.20;2.20;;;16.10;99.90;;;;;;5056110;28;20029;-67
2021/08/17 08:20:39;;;;;;;6.18;2.03;;;16.10;99.90;;;;;;5055978;28;20219;-68
2021/08/17 08:23:05;;;;;;;5.47;2.10;;;16.00;99.90;;;;;;5044806;28;20037;-67
2021/08/17 08:25:31;;;;;;;6.30;2.17;;;16.10;99.90;;;;;;5044478;28;20033;-68
2021/08/17 08:27:57;;;;;;;5.97;2.08;;;16.10;99.90;;;;;;5043730;28;20086;-68
2021/08/17 08:30:23;;;;;;;5.43;2.42;;;16.00;99.90;;;;;;5047959;28;20454;-67
2021/08/17 08:32:49;;;;;;;5.75;2.15;;;16.00;99.90;;;;;;5047512;28;20151;-68
2021/08/17 08:35:15;;;;;;;12.20;2.38;;;16.00;99.90;;;;;;5030087;28;20127;-67
2021/08/17 08:37:41;;;;;;;6.43;2.25;;;15.80;99.90;;;;;;5043809;28;20024;-68
2021/08/17 08:40:09;;;;;;;7.68;2.30;;;15.70;99.90;;;;;;5049868;28;20072;-67
2021/08/17 08:42:35;;;;;;;6.72;2.50;;;15.60;99.90;;;;;;5047193;28;20024;-67
2021/08/17 08:45:01;;;;;;;5.38;1.88;;;15.60;99.90;;;;;;5043123;28;20037;-67
2021/08/17 08:47:31;;;;;;;10.20;2.80;;;15.60;99.90;;;;;;5023388;28;20029;-68
2021/08/17 08:49:58;;;;;;;5.80;2.35;;;15.50;99.90;;;;;;5057073;28;20125;-66
2021/08/17 08:52:24;;;;;;;10.98;2.47;;;15.50;99.90;;;;;;5049253;28;20126;-66
2021/08/17 08:54:50;;;;;;;7.57;2.53;;;15.30;99.90;;;;;;5042440;28;20037;-66
2021/08/17 08:57:16;;;;;;;12.45;3.60;;;15.30;99.90;;;;;;5053337;28;20154;-67
2021/08/17 08:59:41;;;;;;;12.50;3.78;;;15.20;99.90;;;;;;5057947;28;20043;-67
2021/08/17 09:02:09;;;;;;;9.77;3.58;;;15.10;99.90;;;;;;5057691;28;20036;-67
2021/08/17 09:04:36;;;;;;;9.93;3.42;;;15.10;99.90;;;;;;5057397;28;20033;-67
2021/08/17 09:07:03;;;;;;;10.15;4.13;;;15.10;99.90;;;;;;5057139;28;20037;-67
2021/08/17 09:09:29;;;;;;;14.13;3.95;;;15.00;99.90;;;;;;5057760;28;20122;-66
2021/08/17 09:11:57;;;;;;;12.02;3.53;;;15.00;99.90;;;;;;5057011;28;20035;-66
2021/08/17 09:14:32;;;;;;;12.00;3.25;;;15.10;99.90;;;;;;5056064;28;20032;-66
2021/08/17 09:17:03;;;;;;;6.93;2.58;;;15.10;99.90;;;;;;5058071;28;20450;-67
2021/08/17 09:19:35;;;;;;;9.57;3.10;;;15.10;99.90;;;;;;5059150;28;20397;-68
2021/08/17 09:22:14;;;;;;;10.90;3.10;;;15.20;99.90;;;;;;5056554;28;20279;-66
2021/08/17 09:24:42;;;;;;;7.05;1.98;;;15.20;99.90;;;;;;5054503;28;20056;-66
2021/08/17 09:27:15;;;;;;;10.10;3.05;;;15.20;99.90;;;;;;5037892;28;20037;-67
2021/08/17 09:29:44;;;;;;;8.45;2.60;;;15.20;99.90;;;;;;5055423;28;20029;-67
2021/08/17 09:32:17;;;;;;;9.32;2.42;;;15.20;99.90;;;;;;5057851;28;20029;-67
2021/08/17 09:34:45;;;;;;;8.80;1.88;;;15.20;99.90;;;;;;5056313;28;20037;-67
2021/08/17 09:37:11;;;;;;;8.25;2.20;;;15.10;99.90;;;;;;5057805;28;20036;-67
2021/08/17 09:39:41;;;;;;;6.20;2.00;;;15.10;99.90;;;;;;5053014;28;20082;-66
2021/08/17 09:42:13;;;;;;;6.72;2.45;;;15.10;99.90;;;;;;5056537;28;20049;-67
2021/08/17 09:44:43;;;;;;;4.18;2.00;;;15.10;99.90;;;;;;5057095;28;20375;-67
2021/08/17 09:47:10;;;;;;;6.60;2.00;;;15.00;99.90;;;;;;5056914;28;20028;-67
2021/08/17 09:49:36;;;;;;;5.20;1.60;;;15.00;99.90;;;;;;5055216;28;20056;-66
2021/08/17 09:52:15;;;;;;;6.50;1.85;;;15.00;99.90;;;;;;5055011;28;20487;-67
2021/08/17 09:54:44;;;;;;;5.25;1.80;;;15.00;99.90;;;;;;5056905;28;20035;-67
2021/08/17 09:57:10;;;;;;;5.07;1.70;;;15.00;99.90;;;;;;5057135;28;20078;-67
2021/08/17 09:59:39;;;;;;;7.40;2.10;;;15.00;99.90;;;;;;5055907;28;20040;-67
2021/08/17 10:02:06;;;;;;;7.35;2.67;;;15.10;99.90;;;;;;5056469;28;20406;-67
2021/08/17 10:04:32;;;;;;;7.57;2.10;;;15.20;99.90;;;;;;5056971;28;20163;-67
2021/08/17 10:07:00;;;;;;;9.02;2.78;;;15.30;99.90;;;;;;5055926;28;20036;-67
2021/08/17 10:09:28;;;;;;;7.95;2.42;;;15.50;99.90;;;;;;5039515;28;20017;-67
2021/08/17 10:11:54;;;;;;;5.78;2.17;;;15.60;99.90;;;;;;5053816;28;20032;-67
2021/08/17 10:14:21;;;;;;;7.80;2.08;;;15.70;99.90;;;;;;5057654;28;20036;-67
2021/08/17 10:16:47;;;;;;;6.88;2.33;;;15.80;99.90;;;;;;5056011;28;20509;-67
2021/08/17 10:19:18;;;;;;;8.45;2.22;;;16.00;99.90;;;;;;5045575;28;20025;-68
2021/08/17 10:21:47;;;;;;;7.78;2.67;;;16.10;99.90;;;;;;5054399;28;20036;-67
2021/08/17 10:24:35;;;;;;;11.18;2.55;;;16.10;99.90;;;;;;5056547;28;20071;-67
2021/08/17 10:27:27;;;;;;;7.65;2.40;;;16.20;99.90;;;;;;5056682;28;20044;-67
2021/08/17 10:29:56;;;;;;;8.43;2.40;;;16.20;99.90;;;;;;5051777;28;20024;-68
2021/08/17 10:32:39;;;;;;;7.47;2.53;;;16.20;99.90;;;;;;5055330;28;20379;-70
2021/08/17 10:35:05;;;;;;;8.98;2.90;;;16.20;99.90;;;;;;5058326;28;20035;-69
2021/08/17 10:37:31;;;;;;;9.93;2.55;;;16.20;99.90;;;;;;5051757;28;20103;-67
2021/08/17 10:39:57;;;;;;;10.00;3.22;;;16.20;99.90;;;;;;5056691;28;20056;-67
2021/08/17 10:42:25;;;;;;;8.57;3.20;;;16.10;99.90;;;;;;5055864;28;20033;-69
2021/08/17 10:44:52;;;;;;;7.68;2.55;;;16.10;99.90;;;;;;5040631;28;20072;-69
2021/08/17 10:47:32;;;;;;;9.65;2.42;;;16.20;99.90;;;;;;5055113;28;20579;-66
2021/08/17 10:49:59;;;;;;;11.73;3.08;;;16.30;99.90;;;;;;5056422;28;20065;-69
2021/08/17 10:52:31;;;;;;;12.60;3.03;;;16.30;99.90;;;;;;5054263;28;20032;-68
2021/08/17 10:55:26;;;;;;;11.32;3.47;;;16.30;99.90;;;;;;5054871;28;20040;-70
2021/08/17 10:58:00;;;;;;;10.23;3.42;;;16.30;99.90;;;;;;5055465;28;20040;-68
2021/08/17 11:00:46;;;;;;;14.95;3.17;;;16.30;99.90;;;;;;5041029;28;20029;-68
2021/08/17 11:03:32;;;;;;;18.17;3.08;;;16.30;99.90;;;;;;5059986;28;20035;-67
2021/08/17 11:05:58;;;;;;;12.10;3.05;;;16.30;99.90;;;;;;5039533;28;20508;-66
2021/08/17 11:08:33;;;;;;;11.30;3.28;;;16.20;99.90;;;;;;5060011;28;20036;-66
2021/08/17 11:11:00;;;;;;;14.23;3.83;;;16.20;99.90;;;;;;5058830;28;20481;-67
2021/08/17 11:13:26;;;;;;;17.20;3.33;;;16.20;99.90;;;;;;5060100;28;20418;-66
2021/08/17 11:16:12;;;;;;;11.93;3.28;;;16.20;99.90;;;;;;5053669;28;20033;-68
2021/08/17 11:18:52;;;;;;;16.13;2.97;;;16.20;99.90;;;;;;5058703;28;20032;-67
2021/08/17 11:21:48;;;;;;;16.83;3.47;;;16.20;99.90;;;;;;5057960;28;20047;-66
2021/08/17 11:24:21;;;;;;;18.13;3.85;;;16.20;99.90;;;;;;5047579;28;20091;-66
2021/08/17 11:26:56;;;;;;;16.08;3.58;;;16.10;99.90;;;;;;5057673;28;20032;-66
2021/08/17 11:29:33;;;;;;;15.35;3.17;;;16.00;99.90;;;;;;5059695;28;20137;-67
2021/08/17 11:32:03;;;;;;;10.25;2.92;;;16.00;99.90;;;;;;5040897;28;20027;-68
2021/08/17 11:34:37;;;;;;;11.55;3.47;;;16.10;99.90;;;;;;5056498;28;20020;-69
2021/08/17 11:37:09;;;;;;;19.38;4.13;;;16.10;99.90;;;;;;5058818;28;20609;-66
2021/08/17 11:39:38;;;;;;;12.55;3.00;;;16.10;99.90;;;;;;5054675;28;20037;-67
2021/08/17 11:42:18;;;;;;;10.82;3.20;;;16.00;99.90;;;;;;5056602;28;20060;-67
2021/08/17 11:44:47;;;;;;;15.27;3.75;;;16.10;99.90;;;;;;5057561;28;20351;-67
2021/08/17 11:47:16;;;;;;;10.73;2.83;;;16.00;99.90;;;;;;5058212;28;20029;-67
2021/08/17 11:49:43;;;;;;;9.60;3.22;;;16.00;99.90;;;;;;5042536;28;20395;-67
2021/08/17 11:52:15;;;;;;;12.65;3.72;;;15.90;99.90;;;;;;5059486;28;20044;-66
2021/08/17 11:54:45;;;;;;;10.20;3.17;;;15.80;99.90;;;;;;5051483;28;20064;-67
2021/08/17 11:57:12;;;;;;;13.15;4.32;;;15.80;99.90;;;;;;5056286;28;20060;-67
2021/08/17 11:59:43;;;;;;;16.92;3.92;;;15.80;99.90;;;;;;5058548;28;20043;-67
2021/08/17 12:02:09;;;;;;;;;;;15.90;99.90;;;;;;5057328;28;20082;-67
2021/08/17 12:04:35;;;;;;;15.65;3.80;;;16.00;99.90;;;;;;5059124;28;19982;-66
2021/08/17 12:07:12;;;;;;;11.10;3.80;;;16.10;99.90;;;;;;5041755;28;20053;-66
2021/08/17 12:09:41;;;;;;;13.90;3.95;;;16.10;99.90;;;;;;5058453;28;20060;-67
2021/08/17 12:12:08;;;;;;;21.75;5.20;;;16.10;99.90;;;;;;5055401;28;20024;-67
2021/08/17 12:14:35;;;;;;;14.18;4.88;;;16.10;99.90;;;;;;5057693;28;20029;-67
2021/08/17 12:17:00;;;;;;;10.75;2.97;;;16.10;99.90;;;;;;5057714;28;20598;-66
2021/08/17 12:19:26;;;;;;;11.63;4.13;;;16.10;99.90;;;;;;5057962;28;20039;-67
2021/08/17 12:21:52;;;;;;;10.50;4.45;;;16.10;99.90;;;;;;5058048;28;20059;-66
2021/08/17 12:24:30;;;;;;;13.85;4.13;;;16.00;99.90;;;;;;5056007;28;20025;-67
2021/08/17 12:27:07;;;;;;;11.45;3.63;;;15.90;99.90;;;;;;5054040;28;20032;-67
2021/08/17 12:29:38;;;;;;;10.90;3.70;;;15.90;99.90;;;;;;5059139;28;20499;-67
2021/08/17 12:32:22;;;;;;;14.35;3.60;;;16.00;99.90;;;;;;5056346;28;20060;-67
2021/08/17 12:34:50;;;;;;;16.02;4.13;;;16.00;99.90;;;;;;5057701;28;21175;-66
2021/08/17 12:37:27;;;;;;;14.93;4.03;;;16.00;99.90;;;;;;5056673;28;20062;-66
2021/08/17 12:39:55;;;;;;;18.17;4.32;;;16.10;99.90;;;;;;5058946;28;20388;-67
2021/08/17 12:42:21;;;;;;;11.88;4.15;;;16.20;99.90;;;;;;5056842;28;20111;-66